Westbrook, CT (06498)

6:59 PM EDT on July 29, 2016 (GMT -0400)
Plymouth Road | | Change Station

Elev 39 ft 41.29 °N, 72.44 °W | Updated 21 seconds ago

Scattered Clouds
Scattered Clouds
75.4 °F
Feels Like 76 °F
N
0.0
Wind Variable Wind from WSW
Gusts 3.0 mph

Today
High -- | Low -- °F
--% Chance of Precip.
Yesterday
High -- | Low -- °F
Precip. -- in
Pressure 29.87 in
Visibility 10.0 miles
Clouds Scattered Clouds 4900 ft
Scattered Clouds 8500 ft
Heat Index 76 °F
Dew Point 71 °F
Humidity 85%
Rainfall 0.28 in
Snow Depth Not available.
5:42 AM 8:09 PM
Waning Crescent, 18% visible
METAR KSNC 292255Z AUTO 16007KT 10SM SCT049 SCT085 25/20 A2987 RMK AO2
Pressure 29.87 in
Visibility 10.0 miles
Clouds Scattered Clouds 4900 ft
Scattered Clouds 8500 ft
Heat Index 76 °F
Dew Point 71 °F
Humidity 85%
Rainfall 0.28 in
Snow Depth Not available.
5:42 AM 8:09 PM
Waning Crescent, 18% visible
METAR KSNC 292255Z AUTO 16007KT 10SM SCT049 SCT085 25/20 A2987 RMK AO2

10-Day Weather Forecast

Almanac

Astronomy

Jul. 29, 2016 Rise Set
Actual Time
Civil Twilight
Nautical Twilight
Astronomical Twilight
Moon
Length of Visible Light
Length of Day
Tomorrow will be .
, % of the Moon is Illuminated

Today's Extremes

State Highs State Lows

Community

WunderPhotos

Upload Photos

1,928,436 photos uploaded!

WunderBlog® & News

Nearby

Air Quality

  Air Quality AQ Index Pollutant
Not available.

Snow Depth

Station Depth Elevation

Earthquake Activity

City Distance Mag. Time & Date
Minimum magnitude displayed is 2.5.

Coastal Water Temperatures

Place Temperature

Stations

Nearby Weather Stations

Station Location Temp. Windchill Dew Point Humidity Wind Precip. Elev Updated Type
                   

Watches & Warnings

There are currently no watches in effect.